Time;durP1;ratioP1;P1;durP2;ratioP2;P2;SDS_P1;SDS_P2;PMS_P1;PMS_P2;Temp;Humidity;BMP_temperature;BMP_pressure;BME280_temperature;BME280_humidity;BME280_pressure;Samples;Min_cycle;Max_cycle;Signal;HPM_P1;HPM_P2
2024/04/08 00:00:32;;;;;;;5.93;3.67;;;;;;;12.54;100.00;99560.41;5350314;26;20492;-65
2024/04/08 00:03:01;;;;;;;4.78;3.40;;;;;;;12.53;100.00;99558.75;5351002;26;20033;-66
2024/04/08 00:05:29;;;;;;;4.68;2.92;;;;;;;12.55;100.00;99566.56;5322194;26;19992;-65
2024/04/08 00:07:55;;;;;;;5.93;3.35;;;;;;;12.53;100.00;99564.06;5321991;26;20032;-66
2024/04/08 00:10:21;;;;;;;4.93;3.25;;;;;;;12.52;100.00;99553.59;5322028;26;20473;-65
2024/04/08 00:12:47;;;;;;;6.50;3.22;;;;;;;12.36;100.00;99553.66;5379490;26;20000;-65
2024/04/08 00:15:16;;;;;;;7.57;3.38;;;;;;;12.32;100.00;99545.16;5379436;26;20000;-65
2024/04/08 00:17:42;;;;;;;4.50;3.17;;;;;;;12.34;100.00;99553.84;5236578;26;20018;-66
2024/04/08 00:20:10;;;;;;;4.78;3.28;;;;;;;12.42;100.00;99558.28;5349993;26;20012;-65
2024/04/08 00:22:37;;;;;;;4.07;2.90;;;;;;;12.37;100.00;99555.31;5293243;26;19997;-65
2024/04/08 00:25:13;;;;;;;3.47;3.08;;;;;;;12.34;100.00;99551.16;5349817;26;20108;-66
2024/04/08 00:27:38;;;;;;;4.75;3.17;;;;;;;12.26;100.00;99556.50;5350460;26;20036;-66
2024/04/08 00:30:06;;;;;;;6.55;3.00;;;;;;;12.22;100.00;99560.53;5349932;26;20015;-66
2024/04/08 00:32:34;;;;;;;4.78;3.08;;;;;;;12.17;100.00;99570.84;5384921;26;20014;-66
2024/04/08 00:35:00;;;;;;;5.45;3.00;;;;;;;12.16;100.00;99574.53;5356278;26;20433;-65
2024/04/08 00:37:26;;;;;;;4.97;2.50;;;;;;;12.17;100.00;99573.50;5414905;26;20483;-66
2024/04/08 00:39:53;;;;;;;4.40;2.97;;;;;;;12.12;100.00;99573.19;5250448;27;19998;-65
2024/04/08 00:42:21;;;;;;;4.22;2.80;;;;;;;12.21;100.00;99576.69;5279915;27;20005;-65
2024/04/08 00:44:47;;;;;;;3.40;2.47;;;;;;;12.21;100.00;99577.47;5279404;27;20006;-65
2024/04/08 00:47:16;;;;;;;4.15;2.55;;;;;;;12.25;100.00;99573.50;5279896;27;20131;-66
2024/04/08 00:49:43;;;;;;;5.38;2.53;;;;;;;12.28;100.00;99570.50;5279611;27;20009;-68
2024/04/08 00:52:13;;;;;;;2.58;2.20;;;;;;;12.33;100.00;99565.47;5267867;27;20456;-65
2024/04/08 00:54:40;;;;;;;3.33;2.20;;;;;;;12.24;100.00;99571.00;5268171;27;20035;-65
2024/04/08 00:57:09;;;;;;;5.03;2.20;;;;;;;11.99;100.00;99570.22;5296079;27;20071;-65
2024/04/08 00:59:35;;;;;;;5.05;2.83;;;;;;;11.90;100.00;99574.72;5267695;27;20013;-65
2024/04/08 01:02:02;;;;;;;3.55;2.42;;;;;;;12.06;100.00;99578.34;5267992;27;19995;-66
2024/04/08 01:04:32;;;;;;;5.25;3.00;;;;;;;12.11;100.00;99560.03;5267815;27;20014;-65
2024/04/08 01:07:01;;;;;;;3.42;2.40;;;;;;;12.09;100.00;99570.84;5267559;27;20010;-66
2024/04/08 01:09:30;;;;;;;4.53;2.20;;;;;;;11.99;100.00;99572.03;5267840;27;20003;-65
2024/04/08 01:11:58;;;;;;;;;;;;;;;12.21;100.00;99566.84;5337513;26;20001;-65
2024/04/08 01:14:25;;;;;;;2.53;2.20;;;;;;;12.03;100.00;99576.84;5313191;26;19933;-65
2024/04/08 01:16:51;;;;;;;3.70;2.58;;;;;;;11.97;100.00;99571.38;5312881;26;20398;-65
2024/04/08 01:19:23;;;;;;;6.93;2.60;;;;;;;11.69;100.00;99587.69;5313385;26;20033;-66
2024/04/08 01:21:50;;;;;;;3.75;2.60;;;;;;;11.82;100.00;99588.00;5211622;27;20071;-65
2024/04/08 01:24:18;;;;;;;4.40;2.53;;;;;;;11.82;100.00;99590.66;5277351;27;20002;-66
2024/04/08 01:26:47;;;;;;;4.50;2.72;;;;;;;11.91;100.00;99591.53;5223473;27;20154;-66
2024/04/08 01:29:15;;;;;;;4.05;2.22;;;;;;;11.84;100.00;99598.50;5278767;27;20026;-69
2024/04/08 01:31:41;;;;;;;3.70;2.47;;;;;;;11.87;100.00;99599.00;5279077;26;20002;-65
2024/04/08 01:34:08;;;;;;;2.47;2.05;;;;;;;11.90;100.00;99603.97;5222805;27;20012;-65
2024/04/08 01:36:35;;;;;;;4.25;2.67;;;;;;;11.89;100.00;99601.50;5250541;27;20037;-66
2024/04/08 01:39:03;;;;;;;3.75;2.50;;;;;;;11.87;100.00;99599.00;5278482;26;20021;-65
2024/04/08 01:41:30;;;;;;;4.60;2.55;;;;;;;11.93;100.00;99594.00;5184253;27;20116;-65
2024/04/08 01:43:57;;;;;;;3.17;2.30;;;;;;;11.94;100.00;99585.84;5211445;27;20003;-66
2024/04/08 01:46:23;;;;;;;3.65;2.15;;;;;;;11.99;100.00;99591.53;5211327;27;20010;-66
2024/04/08 01:48:48;;;;;;;3.85;2.40;;;;;;;12.02;100.00;99593.84;5184065;27;20003;-65
2024/04/08 01:51:15;;;;;;;2.63;2.22;;;;;;;12.05;100.00;99590.84;5212620;27;20003;-65
2024/04/08 01:53:42;;;;;;;2.95;1.98;;;;;;;12.11;100.00;99591.97;5281189;26;20012;-65
2024/04/08 01:56:08;;;;;;;3.90;2.10;;;;;;;12.12;100.00;99596.31;5292829;26;20040;-66
2024/04/08 01:58:34;;;;;;;6.13;2.10;;;;;;;12.13;100.00;99592.66;5292795;26;19998;-65
2024/04/08 02:01:00;;;;;;;5.20;2.30;;;;;;;11.95;100.00;99584.03;5293562;26;20004;-66
2024/04/08 02:03:26;;;;;;;3.15;1.92;;;;;;;12.01;100.00;99583.38;5293687;26;20000;-65
2024/04/08 02:05:53;;;;;;;3.53;1.90;;;;;;;12.10;100.00;99590.34;5321641;26;20030;-66
2024/04/08 02:08:20;;;;;;;3.97;2.50;;;;;;;12.08;100.00;99585.19;5321321;26;20015;-66
2024/04/08 02:10:49;;;;;;;2.53;2.17;;;;;;;12.03;100.00;99584.00;5287532;26;20376;-66
2024/04/08 02:13:15;;;;;;;2.92;2.30;;;;;;;11.99;100.00;99578.22;5342593;26;20057;-66
2024/04/08 02:15:41;;;;;;;2.97;2.30;;;;;;;12.12;100.00;99578.50;5355933;26;20028;-65
2024/04/08 02:18:08;;;;;;;2.88;2.20;;;;;;;12.08;100.00;99568.38;5355505;26;19991;-66
2024/04/08 02:20:38;;;;;;;2.65;2.03;;;;;;;12.23;100.00;99567.50;5405482;26;20504;-66
2024/04/08 02:23:04;;;;;;;3.47;2.20;;;;;;;12.05;100.00;99566.88;5391434;26;20009;-66
2024/04/08 02:25:30;;;;;;;3.83;2.50;;;;;;;12.07;100.00;99564.06;5390864;26;19995;-65
2024/04/08 02:27:57;;;;;;;4.38;2.30;;;;;;;12.23;100.00;99556.00;5333184;26;20445;-65
2024/04/08 02:30:26;;;;;;;3.22;2.35;;;;;;;12.23;100.00;99559.50;5390626;26;20022;-65
2024/04/08 02:32:52;;;;;;;4.18;2.20;;;;;;;12.10;100.00;99564.53;5421603;26;20006;-66
2024/04/08 02:35:17;;;;;;;3.85;2.30;;;;;;;12.19;100.00;99565.34;5362306;26;20003;-66
2024/04/08 02:37:43;;;;;;;3.58;2.33;;;;;;;12.05;100.00;99566.03;5420733;26;19994;-65
2024/04/08 02:40:10;;;;;;;6.65;3.20;;;;;;;11.98;100.00;99551.75;5391625;26;20040;-65
2024/04/08 02:42:37;;;;;;;6.57;3.45;;;;;;;12.01;100.00;99551.41;5416697;26;20068;-65
2024/04/08 02:45:04;;;;;;;4.90;2.75;;;;;;;11.97;100.00;99542.94;5392407;26;20009;-66
2024/04/08 02:47:31;;;;;;;4.90;2.95;;;;;;;11.93;100.00;99544.28;5393286;26;19995;-66
2024/04/08 02:49:57;;;;;;;5.22;2.92;;;;;;;11.91;100.00;99535.63;5392317;26;20029;-66
2024/04/08 02:52:23;;;;;;;3.58;2.50;;;;;;;11.99;100.00;99532.13;5392283;26;20006;-67
2024/04/08 02:54:50;;;;;;;3.92;3.03;;;;;;;12.00;100.00;99534.59;5453837;26;20010;-68
2024/04/08 02:57:16;;;;;;;3.55;2.88;;;;;;;11.99;100.00;99532.13;5421888;26;19995;-66
2024/04/08 02:59:42;;;;;;;4.20;2.70;;;;;;;11.99;100.00;99527.63;5392240;26;20064;-65
2024/04/08 03:02:08;;;;;;;5.95;3.00;;;;;;;11.91;100.00;99535.63;5421497;26;19994;-66
2024/04/08 03:04:33;;;;;;;5.40;3.03;;;;;;;11.77;100.00;99523.84;5391223;26;20005;-66
2024/04/08 03:06:59;;;;;;;5.32;3.03;;;;;;;11.80;100.00;99517.34;5451480;26;20079;-64
2024/04/08 03:09:25;;;;;;;3.83;2.53;;;;;;;11.91;100.00;99517.00;5421331;26;20006;-73
2024/04/08 03:11:51;;;;;;;4.57;3.50;;;;;;;11.74;100.00;99510.03;5391335;26;19999;-66
2024/04/08 03:14:16;;;;;;;4.32;3.17;;;;;;;11.80;100.00;99514.69;5421281;26;19998;-77
2024/04/08 03:16:44;;;;;;;4.30;3.50;;;;;;;11.85;100.00;99510.50;5420930;26;19995;-66
2024/04/08 03:19:10;;;;;;;8.10;3.90;;;;;;;11.90;100.00;99512.66;5420990;26;20355;-66
2024/04/08 03:21:35;;;;;;;6.38;3.60;;;;;;;11.88;100.00;99509.34;5450856;26;19998;-67
2024/04/08 03:24:02;;;;;;;5.00;3.15;;;;;;;11.91;100.00;99519.66;5391591;26;20048;-67
2024/04/08 03:26:28;;;;;;;5.55;3.78;;;;;;;11.83;100.00;99525.00;5383700;26;20069;-70
2024/04/08 03:28:54;;;;;;;8.35;3.63;;;;;;;11.80;100.00;99525.31;5413377;26;20403;-69
2024/04/08 03:31:20;;;;;;;4.40;3.70;;;;;;;11.87;100.00;99513.00;5325920;26;20086;-69
2024/04/08 03:33:47;;;;;;;8.32;3.63;;;;;;;11.88;100.00;99520.00;5384614;26;20087;-69
2024/04/08 03:36:16;;;;;;;5.60;3.83;;;;;;;11.82;100.00;99526.00;5413699;26;20013;-68
2024/04/08 03:38:44;;;;;;;8.88;4.38;;;;;;;11.86;100.00;99527.31;5385446;26;20056;-68
2024/04/08 03:41:10;;;;;;;5.13;3.90;;;;;;;11.98;100.00;99515.31;5414418;26;20036;-68
2024/04/08 03:43:36;;;;;;;6.90;3.90;;;;;;;12.03;100.00;99512.13;5384060;26;20065;-67
2024/04/08 03:46:04;;;;;;;5.88;3.92;;;;;;;11.97;100.00;99524.31;5384151;26;20031;-69
2024/04/08 03:48:30;;;;;;;4.32;3.58;;;;;;;12.08;100.00;99523.94;5384165;26;20086;-67
2024/04/08 03:51:07;;;;;;;7.35;4.35;;;;;;;12.10;100.00;99527.25;5383484;26;20015;-70
2024/04/08 03:53:32;;;;;;;7.70;3.88;;;;;;;11.95;100.00;99526.28;5383936;26;20494;-69
2024/04/08 03:56:11;;;;;;;7.80;3.60;;;;;;;12.17;100.00;99522.94;5413151;26;20014;-69
2024/04/08 03:58:38;;;;;;;4.32;3.58;;;;;;;12.25;100.00;99520.25;5418523;26;20027;-69
2024/04/08 04:01:06;;;;;;;7.15;3.47;;;;;;;12.32;100.00;99521.22;5450756;26;19999;-69
2024/04/08 04:03:34;;;;;;;5.35;3.60;;;;;;;12.26;100.00;99511.25;5421031;26;19999;-68
2024/04/08 04:06:00;;;;;;;5.65;3.78;;;;;;;12.31;100.00;99505.41;5420807;26;19998;-70
2024/04/08 04:08:26;;;;;;;5.50;3.90;;;;;;;12.37;100.00;99510.88;5450847;26;20412;-69
2024/04/08 04:10:54;;;;;;;4.63;3.85;;;;;;;12.24;100.00;99513.25;5416166;26;20070;-71
2024/04/08 04:13:19;;;;;;;6.20;3.70;;;;;;;12.30;100.00;99506.41;5405385;26;20043;-70
2024/04/08 04:15:45;;;;;;;7.07;4.07;;;;;;;12.27;100.00;99507.56;5448183;26;20022;-72
2024/04/08 04:18:11;;;;;;;6.45;3.90;;;;;;;12.27;100.00;99507.56;5449602;26;20071;-70
2024/04/08 04:20:42;;;;;;;5.65;3.95;;;;;;;12.47;100.00;99497.34;5451522;26;20080;-70
2024/04/08 04:23:11;;;;;;;6.28;3.67;;;;;;;12.49;100.00;99503.31;5347178;26;20007;-71
2024/04/08 04:25:37;;;;;;;4.07;3.58;;;;;;;12.57;100.00;99504.13;5348204;26;20011;-70
2024/04/08 04:28:04;;;;;;;4.45;3.55;;;;;;;12.66;100.00;99519.06;5345967;26;20398;-70
2024/04/08 04:30:33;;;;;;;6.60;3.67;;;;;;;12.79;100.00;99534.50;5318532;26;20062;-75
2024/04/08 04:33:03;;;;;;;4.65;3.10;;;;;;;12.80;100.00;99512.16;5318202;26;20406;-77
2024/04/08 04:35:30;;;;;;;7.65;3.47;;;;;;;12.91;100.00;99509.09;5321887;26;20019;-73
2024/04/08 04:38:06;;;;;;;6.45;3.67;;;;;;;13.18;100.00;99505.94;5349477;26;20004;-73
2024/04/08 04:40:33;;;;;;;6.63;4.00;;;;;;;12.96;100.00;99504.91;5376952;26;20048;-71
2024/04/08 04:43:02;;;;;;;5.70;4.00;;;;;;;12.93;100.00;99510.56;5348420;26;20036;-71
2024/04/08 04:45:32;;;;;;;6.63;4.10;;;;;;;12.90;100.00;99500.28;5347624;26;20458;-71
2024/04/08 04:47:59;;;;;;;6.65;3.85;;;;;;;12.80;100.00;99493.50;5289056;26;20019;-75
2024/04/08 04:50:25;;;;;;;5.07;3.40;;;;;;;12.97;100.00;99498.56;5305001;26;20033;-74
2024/04/08 04:52:52;;;;;;;7.28;4.28;;;;;;;13.09;100.00;99486.53;5290854;26;20008;-71
2024/04/08 04:55:21;;;;;;;6.30;3.55;;;;;;;13.16;100.00;99484.78;5317782;26;20058;-72
2024/04/08 04:57:47;;;;;;;6.05;3.47;;;;;;;13.21;100.00;99477.09;5320461;26;20018;-71
2024/04/08 05:00:15;;;;;;;6.65;4.00;;;;;;;13.33;100.00;99481.00;5319270;26;20070;-72
2024/04/08 05:02:43;;;;;;;6.32;3.20;;;;;;;13.38;100.00;99502.63;5347548;26;20008;-73
2024/04/08 05:05:12;;;;;;;7.10;3.53;;;;;;;13.26;100.00;99513.91;5348608;26;20019;-73
2024/04/08 05:07:39;;;;;;;7.57;3.50;;;;;;;13.24;100.00;99523.91;5291369;26;19996;-71
2024/04/08 05:10:08;;;;;;;6.03;3.75;;;;;;;13.44;100.00;99528.59;5239300;27;19999;-72
2024/04/08 05:12:34;;;;;;;4.65;3.33;;;;;;;13.29;100.00;99509.03;5212392;27;20007;-73
2024/04/08 05:15:01;;;;;;;4.78;3.03;;;;;;;13.26;100.00;99505.91;5184938;27;20431;-75
2024/04/08 05:17:30;;;;;;;6.90;3.53;;;;;;;13.15;100.00;99514.31;5240285;27;20026;-73
2024/04/08 05:20:03;;;;;;;4.43;3.10;;;;;;;13.22;100.00;99494.75;5185012;27;20428;-72
2024/04/08 05:22:30;;;;;;;4.85;3.35;;;;;;;13.13;100.00;99497.66;5240317;27;19999;-73
2024/04/08 05:25:00;;;;;;;7.53;3.47;;;;;;;13.43;100.00;99497.59;5213033;27;20142;-80
2024/04/08 05:27:26;;;;;;;5.40;3.33;;;;;;;13.45;100.00;99487.56;5239809;27;19999;-73
2024/04/08 05:29:54;;;;;;;7.93;3.38;;;;;;;13.30;100.00;99489.34;5212387;27;20003;-71
2024/04/08 05:32:20;;;;;;;4.88;3.25;;;;;;;13.27;100.00;99495.06;5206465;27;20012;-70
2024/04/08 05:34:47;;;;;;;5.70;3.28;;;;;;;13.37;100.00;99481.47;5206427;27;20011;-71
2024/04/08 05:37:13;;;;;;;6.13;3.50;;;;;;;13.14;100.00;99483.31;5152332;27;20067;-71
2024/04/08 05:39:40;;;;;;;5.20;3.10;;;;;;;13.25;100.00;99472.25;5206456;27;20366;-70
2024/04/08 05:42:07;;;;;;;4.38;3.25;;;;;;;13.30;100.00;99481.34;5241637;27;19997;-70
2024/04/08 05:44:38;;;;;;;6.13;3.20;;;;;;;13.68;100.00;99479.53;5252061;27;20002;-72
2024/04/08 05:47:12;;;;;;;4.30;3.40;;;;;;;13.94;100.00;99469.25;5297962;26;20015;-72
2024/04/08 05:49:43;;;;;;;4.43;2.85;;;;;;;14.00;100.00;99487.22;5345739;26;20537;-72
2024/04/08 05:52:13;;;;;;;7.00;3.72;;;;;;;14.13;100.00;99483.91;5347470;26;20000;-71
2024/04/08 05:54:42;;;;;;;3.90;2.70;;;;;;;14.32;100.00;99484.19;5290990;26;20009;-70
2024/04/08 05:57:08;;;;;;;6.05;3.20;;;;;;;13.94;100.00;99461.25;5346684;26;20019;-71
2024/04/08 05:59:35;;;;;;;4.57;2.83;;;;;;;14.07;100.00;99472.09;5376382;26;20004;-72
2024/04/08 06:02:02;;;;;;;4.38;2.60;;;;;;;13.99;100.00;99472.19;5269977;26;20008;-73
2024/04/08 06:04:27;;;;;;;5.47;3.15;;;;;;;14.14;100.00;99482.88;5371193;26;20000;-71
2024/04/08 06:06:54;;;;;;;5.38;2.72;;;;;;;14.24;100.00;99486.13;5312322;26;20037;-72
2024/04/08 06:09:20;;;;;;;3.08;2.47;;;;;;;14.42;100.00;99494.59;5312263;26;20017;-74
2024/04/08 06:11:46;;;;;;;4.90;2.60;;;;;;;14.44;100.00;99488.03;5312797;26;20016;-72
2024/04/08 06:14:15;;;;;;;3.53;3.03;;;;;;;14.64;100.00;99482.94;5249833;27;20002;-72
2024/04/08 06:16:41;;;;;;;3.63;2.72;;;;;;;14.64;100.00;99482.94;5278224;27;20041;-72
2024/04/08 06:19:08;;;;;;;6.47;2.80;;;;;;;14.85;100.00;99465.09;5221965;27;20167;-71
2024/04/08 06:21:36;;;;;;;8.52;2.92;;;;;;;15.01;100.00;99470.22;5261633;27;20429;-72
2024/04/08 06:24:04;;;;;;;6.45;3.05;;;;;;;15.03;100.00;99467.34;5249747;27;20640;-72
2024/04/08 06:26:33;;;;;;;5.40;2.70;;;;;;;15.23;100.00;99466.53;5157442;27;20011;-74
2024/04/08 06:29:00;;;;;;;5.65;2.60;;;;;;;15.61;100.00;99471.59;5184394;27;20509;-75
2024/04/08 06:31:27;;;;;;;5.63;2.83;;;;;;;15.64;100.00;99471.22;5210535;27;20462;-73
2024/04/08 06:33:53;;;;;;;3.63;2.35;;;;;;;16.04;100.00;99467.78;5183545;27;20010;-71
2024/04/08 06:36:22;;;;;;;3.33;2.55;;;;;;;16.32;100.00;99452.50;5210703;27;20003;-73
2024/04/08 06:38:48;;;;;;;4.78;2.47;;;;;;;16.46;100.00;99462.28;5240797;27;20357;-72
2024/04/08 06:41:15;;;;;;;7.63;2.08;;;;;;;16.88;100.00;99450.47;5221445;27;20100;-72
2024/04/08 06:43:42;;;;;;;2.53;2.10;;;;;;;17.08;100.00;99443.28;5201059;27;20007;-71
2024/04/08 06:46:08;;;;;;;4.88;1.85;;;;;;;17.13;100.00;99441.63;5230319;27;20008;-72
2024/04/08 06:48:36;;;;;;;3.80;1.80;;;;;;;17.22;100.00;99444.94;5264128;27;20009;-73
2024/04/08 06:51:05;;;;;;;2.40;1.80;;;;;;;17.27;100.00;99442.47;5223693;27;20009;-72
2024/04/08 06:53:31;;;;;;;4.95;2.10;;;;;;;17.30;100.00;99437.50;5234252;27;20003;-76
2024/04/08 06:55:57;;;;;;;5.88;2.20;;;;;;;17.33;100.00;99438.97;5263480;27;20484;-72
2024/04/08 06:58:24;;;;;;;4.20;2.30;;;;;;;17.29;100.00;99448.47;5209524;27;20002;-72
2024/04/08 07:00:50;;;;;;;5.43;2.42;;;;;;;16.79;100.00;99439.06;5261753;27;20018;-71
2024/04/08 07:03:16;;;;;;;4.05;1.85;;;;;;;17.32;100.00;99442.69;5291756;27;20444;-72
2024/04/08 07:05:45;;;;;;;5.43;2.30;;;;;;;17.38;100.00;99447.22;5264443;27;20017;-71
2024/04/08 07:08:12;;;;;;;3.47;2.08;;;;;;;17.41;100.00;99436.06;5289204;27;20063;-71
2024/04/08 07:10:38;;;;;;;6.13;1.90;;;;;;;17.70;100.00;99441.88;5292516;27;20014;-73
2024/04/08 07:13:04;;;;;;;1.52;1.42;;;;;;;17.91;100.00;99435.47;5332742;26;20012;-75
2024/04/08 07:15:30;;;;;;;4.50;1.63;;;;;;;18.27;100.00;99436.59;5311286;26;20016;-73
2024/04/08 07:17:56;;;;;;;4.68;1.60;;;;;;;18.76;100.00;99437.88;5415677;26;20010;-71
2024/04/08 07:20:22;;;;;;;2.15;1.40;;;;;;;19.17;100.00;99431.00;5480845;26;20390;-71
2024/04/08 07:22:49;;;;;;;2.53;1.52;;;;;;;19.49;100.00;99429.94;5453364;26;20003;-73
2024/04/08 07:25:16;;;;;;;3.10;1.75;;;;;;;19.87;100.00;99410.91;5384627;26;20463;-73
2024/04/08 07:27:42;;;;;;;4.25;1.90;;;;;;;20.17;100.00;99411.06;5354850;26;20035;-74
2024/04/08 07:30:08;;;;;;;2.13;1.42;;;;;;;20.56;100.00;99408.69;5350616;26;20019;-74
2024/04/08 07:32:36;;;;;;;5.55;2.63;;;;;;;20.35;100.00;99400.25;5350485;26;20039;-75
2024/04/08 07:35:02;;;;;;;4.53;2.10;;;;;;;20.44;100.00;99401.56;5381157;26;20003;-74
2024/04/08 07:37:29;;;;;;;2.13;1.88;;;;;;;21.35;100.00;99393.00;5382114;26;20477;-71
2024/04/08 07:39:55;;;;;;;4.40;1.80;;;;;;;22.68;99.31;99394.63;5323180;26;20096;-72
2024/04/08 07:42:21;;;;;;;3.70;2.38;;;;;;;22.74;90.82;99390.16;5377910;26;20032;-72
2024/04/08 07:44:46;;;;;;;4.88;2.63;;;;;;;22.73;86.02;99397.44;5411142;26;20426;-73
2024/04/08 07:47:12;;;;;;;2.90;2.20;;;;;;;22.81;87.82;99393.53;5411356;26;20007;-73
2024/04/08 07:49:39;;;;;;;3.13;2.50;;;;;;;24.36;79.48;99406.91;5322972;26;20003;-72
2024/04/08 07:52:11;;;;;;;3.10;2.70;;;;;;;26.37;64.75;99420.44;5346084;26;20019;-75
2024/04/08 07:54:38;;;;;;;3.92;2.88;;;;;;;27.29;53.40;99434.09;5346651;26;20044;-75
2024/04/08 07:57:08;;;;;;;3.60;2.38;;;;;;;27.02;52.11;99449.84;5376247;26;20319;-76
2024/04/08 07:59:36;;;;;;;3.83;2.50;;;;;;;27.46;51.04;99451.03;5347430;26;20144;-74
2024/04/08 08:02:09;;;;;;;3.95;2.45;;;;;;;28.82;46.14;99457.13;5348838;26;20010;-75
2024/04/08 08:04:37;;;;;;;3.38;3.08;;;;;;;29.98;40.17;99450.84;5320112;26;20452;-74
2024/04/08 08:07:04;;;;;;;4.22;2.50;;;;;;;30.89;38.39;99473.47;5349821;26;19996;-74
2024/04/08 08:09:30;;;;;;;2.53;1.73;;;;;;;30.30;36.03;99451.94;5378343;26;20000;-73
2024/04/08 08:11:56;;;;;;;2.63;2.22;;;;;;;29.54;37.91;99427.13;5350783;26;20012;-73
2024/04/08 08:14:22;;;;;;;3.10;2.50;;;;;;;29.04;39.02;99443.06;5379806;26;20000;-72
2024/04/08 08:16:48;;;;;;;4.60;2.05;;;;;;;27.65;40.66;99443.13;5380741;26;20064;-73
2024/04/08 08:19:14;;;;;;;5.35;2.00;;;;;;;24.90;50.32;99429.56;5349276;26;20020;-72
2024/04/08 08:21:41;;;;;;;4.47;1.85;;;;;;;24.73;56.58;99426.09;5377867;26;20127;-71
2024/04/08 08:24:07;;;;;;;2.80;1.92;;;;;;;23.45;67.61;99413.94;5413549;26;20008;-73
2024/04/08 08:26:33;;;;;;;2.45;2.25;;;;;;;24.41;64.90;99409.69;5415149;26;20073;-71
2024/04/08 08:28:58;;;;;;;5.78;3.28;;;;;;;25.77;54.22;99417.31;5355936;26;19999;-70
2024/04/08 08:31:25;;;;;;;5.00;3.25;;;;;;;27.32;49.23;99400.88;5431873;26;20444;-70
2024/04/08 08:33:51;;;;;;;4.05;3.60;;;;;;;29.55;41.22;99406.06;5420431;26;19995;-71
2024/04/08 08:36:16;;;;;;;3.85;1.58;;;;;;;29.87;37.28;99408.25;5450222;26;20029;-70
2024/04/08 08:38:42;;;;;;;5.97;2.65;;;;;;;28.43;40.82;99409.69;5450227;26;19998;-71
2024/04/08 08:41:08;;;;;;;7.95;2.55;;;;;;;29.12;40.21;99412.41;5449930;26;20002;-74
2024/04/08 08:43:38;;;;;;;6.43;3.13;;;;;;;30.01;37.66;99418.25;5420185;26;19994;-71
2024/04/08 08:46:05;;;;;;;4.70;2.05;;;;;;;30.82;34.04;99426.38;5450193;26;20419;-71
2024/04/08 08:48:31;;;;;;;5.57;1.83;;;;;;;29.05;38.05;99389.97;5420298;26;20002;-71
2024/04/08 08:50:58;;;;;;;2.97;1.80;;;;;;;29.30;37.84;99390.66;5450132;26;20459;-70
2024/04/08 08:53:24;;;;;;;4.78;1.90;;;;;;;30.05;36.51;99369.97;5390925;26;20007;-70
2024/04/08 08:55:54;;;;;;;5.55;2.38;;;;;;;29.64;35.81;99381.63;5451801;26;20294;-70
2024/04/08 08:58:22;;;;;;;4.53;1.73;;;;;;;27.63;39.69;99358.00;5420099;26;20319;-70
2024/04/08 09:00:51;;;;;;;5.18;2.15;;;;;;;26.53;43.45;99358.66;5449309;26;20409;-71
2024/04/08 09:03:23;;;;;;;3.30;2.00;;;;;;;25.82;48.08;99345.78;5419071;26;20010;-70
2024/04/08 09:05:54;;;;;;;3.83;2.47;;;;;;;25.71;49.76;99360.44;5417934;26;20014;-70
2024/04/08 09:08:23;;;;;;;4.37;2.50;;;;;;;25.23;52.48;99364.13;5381482;26;20588;-71
2024/04/08 09:10:49;;;;;;;3.80;1.80;;;;;;;25.44;53.39;99360.50;5380251;26;20429;-70
2024/04/08 09:13:21;;;;;;;7.03;3.13;;;;;;;25.20;53.87;99367.34;5322794;26;20485;-70
2024/04/08 09:15:50;;;;;;;5.50;3.53;;;;;;;25.81;55.38;99352.31;5380548;26;20135;-71
2024/04/08 09:18:17;;;;;;;6.63;2.60;;;;;;;27.35;47.46;99367.59;5410317;26;19999;-70
2024/04/08 09:20:43;;;;;;;4.13;2.15;;;;;;;26.36;47.01;99383.41;5382816;26;19996;-70
2024/04/08 09:23:10;;;;;;;8.73;1.90;;;;;;;24.69;54.42;99384.25;5383368;26;20006;-69
2024/04/08 09:25:38;;;;;;;9.93;2.13;;;;;;;24.04;62.20;99373.38;5383027;26;19996;-70
2024/04/08 09:28:04;;;;;;;15.45;2.15;;;;;;;23.21;68.09;99402.38;5382807;26;20054;-70
2024/04/08 09:30:30;;;;;;;12.93;2.30;;;;;;;22.56;74.81;99358.69;5382404;26;20007;-70
2024/04/08 09:32:56;;;;;;;8.00;2.75;;;;;;;21.81;89.47;99367.91;5382873;26;20000;-70
2024/04/08 09:35:24;;;;;;;6.65;2.65;;;;;;;22.41;83.88;99360.22;5352885;26;19999;-69
2024/04/08 09:37:53;;;;;;;3.47;2.00;;;;;;;22.65;86.03;99368.06;5381787;26;20069;-69
2024/04/08 09:40:20;;;;;;;5.00;2.78;;;;;;;23.34;80.35;99374.19;5412140;26;20452;-69
2024/04/08 09:42:46;;;;;;;4.78;1.63;;;;;;;24.05;74.80;99387.75;5449585;26;19998;-70
2024/04/08 09:45:13;;;;;;;3.70;1.95;;;;;;;24.08;72.02;99376.41;5449497;26;20010;-71
2024/04/08 09:47:39;;;;;;;3.92;1.70;;;;;;;23.99;72.09;99377.88;5419825;26;20007;-69
2024/04/08 09:50:05;;;;;;;5.70;2.30;;;;;;;22.42;81.05;99391.66;5450084;26;19995;-70
2024/04/08 09:52:31;;;;;;;4.85;2.05;;;;;;;21.58;94.02;99384.09;5449400;26;20100;-70
2024/04/08 09:54:58;;;;;;;5.07;2.00;;;;;;;21.78;96.90;99378.34;5450530;26;20389;-70
2024/04/08 09:57:26;;;;;;;5.95;1.83;;;;;;;21.78;96.98;99371.06;5418643;26;20433;-69
2024/04/08 09:59:56;;;;;;;7.32;2.38;;;;;;;21.75;100.00;99385.06;5389514;26;20338;-69
2024/04/08 10:02:29;;;;;;;;;;;;;;;22.28;96.35;99380.25;5420015;26;20006;-69
2024/04/08 10:04:58;;;;;;;7.45;2.10;;;;;;;22.19;95.21;99357.34;5389315;26;19924;-70
2024/04/08 10:07:24;;;;;;;5.60;2.05;;;;;;;22.53;94.03;99379.97;5418698;26;20039;-70
2024/04/08 10:09:51;;;;;;;6.07;2.10;;;;;;;22.55;93.36;99381.41;5448662;26;19999;-70
2024/04/08 10:12:17;;;;;;;6.55;2.00;;;;;;;22.57;93.35;99384.66;5389398;26;20006;-69
2024/04/08 10:14:43;;;;;;;2.90;1.70;;;;;;;22.57;92.87;99370.34;5453919;26;20065;-71
2024/04/08 10:17:09;;;;;;;5.15;2.22;;;;;;;22.08;96.85;99376.34;5422772;26;20007;-70
2024/04/08 10:19:35;;;;;;;6.72;1.95;;;;;;;22.20;97.02;99353.59;5452072;26;20005;-70
2024/04/08 10:22:01;;;;;;;3.90;1.77;;;;;;;21.86;100.00;99337.44;5420919;26;20006;-70
2024/04/08 10:24:35;;;;;;;8.20;2.10;;;;;;;21.72;100.00;99353.06;5363309;26;19995;-70
2024/04/08 10:27:02;;;;;;;4.50;2.15;;;;;;;21.69;100.00;99358.94;5452301;26;20022;-73
2024/04/08 10:29:32;;;;;;;9.57;2.47;;;;;;;21.49;100.00;99363.88;5422562;26;20014;-70
2024/04/08 10:31:58;;;;;;;5.68;2.15;;;;;;;21.27;100.00;99360.09;5452709;26;19995;-69
2024/04/08 10:34:26;;;;;;;6.82;2.25;;;;;;;21.32;100.00;99344.00;5392317;26;20356;-69
2024/04/08 10:36:53;;;;;;;9.15;2.70;;;;;;;21.16;100.00;99347.38;5392500;26;20385;-69
2024/04/08 10:39:26;;;;;;;4.82;1.90;;;;;;;21.22;100.00;99357.25;5421642;26;20313;-69
2024/04/08 10:41:54;;;;;;;4.45;1.63;;;;;;;21.45;100.00;99366.22;5421994;26;20017;-69
2024/04/08 10:44:23;;;;;;;6.90;2.13;;;;;;;21.53;100.00;99382.09;5422458;26;20048;-69
2024/04/08 10:46:49;;;;;;;7.38;2.45;;;;;;;20.87;100.00;99365.28;5361707;26;19995;-69
2024/04/08 10:49:15;;;;;;;6.13;1.70;;;;;;;20.70;100.00;99360.75;5452053;26;20289;-75
2024/04/08 10:51:43;;;;;;;5.20;2.08;;;;;;;20.91;100.00;99371.84;5453506;26;20092;-71
2024/04/08 10:54:09;;;;;;;8.23;2.72;;;;;;;20.44;100.00;99370.03;5391976;26;20290;-71
2024/04/08 10:56:35;;;;;;;4.50;1.80;;;;;;;20.72;100.00;99382.94;5451720;26;20035;-70
2024/04/08 10:59:01;;;;;;;5.68;2.20;;;;;;;20.73;100.00;99381.88;5391857;26;20005;-71
2024/04/08 11:01:28;;;;;;;5.25;1.90;;;;;;;20.97;100.00;99373.66;5421383;26;20005;-71
2024/04/08 11:03:54;;;;;;;7.72;1.90;;;;;;;21.24;100.00;99379.47;5421508;26;19999;-71
2024/04/08 11:06:20;;;;;;;4.40;1.90;;;;;;;21.45;100.00;99368.09;5453147;26;19999;-70
2024/04/08 11:08:46;;;;;;;9.60;2.40;;;;;;;21.43;100.00;99370.22;5421358;26;20474;-74
2024/04/08 11:11:13;;;;;;;8.02;2.30;;;;;;;21.44;100.00;99379.97;5451241;26;20003;-71
2024/04/08 11:13:39;;;;;;;4.70;2.22;;;;;;;21.42;100.00;99365.84;5384512;26;20027;-70
2024/04/08 11:16:07;;;;;;;4.15;1.88;;;;;;;21.97;100.00;99372.59;5383998;26;20495;-70
2024/04/08 11:18:39;;;;;;;4.75;1.60;;;;;;;22.12;100.00;99372.91;5413621;26;20020;-70
2024/04/08 11:21:05;;;;;;;7.38;1.95;;;;;;;22.08;100.00;99369.00;5383994;26;20134;-71
2024/04/08 11:23:31;;;;;;;4.18;1.83;;;;;;;22.07;100.00;99366.56;5384164;26;19999;-70
2024/04/08 11:25:57;;;;;;;5.97;2.00;;;;;;;21.86;100.00;99359.06;5355158;26;20389;-71